Astra — PB4187 — position and weather

sailwx.info

Track history (hours):
 
Tides and Currents Weather Stations Pressure Air Temp Water Temp Dewpoint Dewpoint Depression Visibility Wind Speed Wind Dir Waves Ship Positions

Astra

Last reported at 2014-Jul-29 16:34 UTC. Time now 2014-Jul-29 16:49 UTC.
Position N 52°23' E 004°54'.

Length 110 m.

Type: Tanker. MMSI: 244650752.

Date/timePositionNaut miles runAvg speedWind from/ knotsBaromVisibWave heightAir tempDewpointWater temp
2014-Jul-29 16:34N 52°23' E 004°54'4 4.2
2014-Jul-29 15:33N 52°25' E 004°47'0 0.0
2014-Jul-29 14:33N 52°25' E 004°47'0 0.0
2014-Jul-29 13:33N 52°25' E 004°47'0 0.0
2014-Jul-29 12:33N 52°25' E 004°47'0 0.0
2014-Jul-29 11:33N 52°25' E 004°47'0 0.0
2014-Jul-29 10:33N 52°25' E 004°47'0 0.0
2014-Jul-29 09:33N 52°25' E 004°47'0 0.0
2014-Jul-29 08:33N 52°25' E 004°47'0 0.0
2014-Jul-29 07:33N 52°25' E 004°47'0 0.1
2014-Jul-29 06:33N 52°25' E 004°48'0 0.0
2014-Jul-29 05:33N 52°25' E 004°48'0 0.0
2014-Jul-29 04:33N 52°25' E 004°48'0 0.0
2014-Jul-29 03:33N 52°25' E 004°48'0 0.0
2014-Jul-29 02:33N 52°25' E 004°48'0 0.0
2014-Jul-29 01:33N 52°25' E 004°48'1 1.0
2014-Jul-29 00:33N 52°25' E 004°49'7 6.6
2014-Jul-28 23:33N 52°22' E 004°58'7 7.2
2014-Jul-28 22:33N 52°15' E 005°01'7 7.3
2014-Jul-28 21:33N 52°07' E 005°04'8 7.7
2014-Jul-28 20:33N 52°01' E 005°09'7 6.7
2014-Jul-28 19:33N 51°58' E 005°19'6 6.0
2014-Jul-28 18:33N 51°55' E 005°27'6 5.6
2014-Jul-28 17:33N 51°54' E 005°36'1010.0
2014-Jul-28 16:33N 51°51' E 005°52'48 4.8
2014-Jul-28 06:33N 51°32' E 007°03'0 0.0
2014-Jul-28 05:17N 51°32' E 007°03'0 0.0
2014-Jul-28 04:23N 51°32' E 007°03'0 0.0
2014-Jul-28 03:29N 51°32' E 007°03'0 0.0
2014-Jul-28 02:31N 51°32' E 007°03'0 0.0
2014-Jul-28 01:33N 51°32' E 007°03'0 0.0
2014-Jul-28 00:32N 51°32' E 007°03'0 0.0
2014-Jul-27 23:25N 51°32' E 007°03'0 0.0
2014-Jul-27 22:33N 51°32' E 007°03'0 0.0
2014-Jul-27 21:33N 51°32' E 007°03'0 0.0
2014-Jul-27 20:33N 51°32' E 007°03'0 0.0
2014-Jul-27 18:23N 51°32' E 007°03'21 3.6
2014-Jul-27 12:29N 51°13' E 006°46'130 7.7
2014-Jul-26 19:31N 49°21' E 008°29'8 8.7
2014-Jul-26 18:33N 49°13' E 008°23'1110.7
2014-Jul-26 17:33N 49°03' E 008°19'1110.7
2014-Jul-26 16:33N 48°54' E 008°09'5 4.9
2014-Jul-26 15:32N 48°50' E 008°07'2 2.1
2014-Jul-26 14:33N 48°48' E 008°05'9 9.1
2014-Jul-26 13:32N 48°41' E 007°55'1 0.0
2014-Jul-25 10:28N 48°40' E 007°54'3 3.6
2014-Jul-25 09:33N 48°43' E 007°57'6 4.3
2014-Jul-25 08:15N 48°47' E 008°02'4 3.3
2014-Jul-25 07:04N 48°50' E 008°07'1 2.5
2014-Jul-25 06:33N 48°51' E 008°07'4 3.6
2014-Jul-25 05:32N 48°55' E 008°09'4 3.6
2014-Jul-25 04:30N 48°58' E 008°13'4 4.1
2014-Jul-25 03:33N 49°00' E 008°17'4 4.1
2014-Jul-25 02:33N 49°04' E 008°19'4 4.1
2014-Jul-25 01:33N 49°08' E 008°22'4 4.3
2014-Jul-25 00:33N 49°12' E 008°23'4 4.2
2014-Jul-24 23:33N 49°16' E 008°26'3 3.3
2014-Jul-24 22:33N 49°19' E 008°28'106 3.4
2014-Jul-23 15:32N 50°49' E 007°01'2 2.4
2014-Jul-23 14:32N 50°52' E 007°01'3 2.6
2014-Jul-23 13:12N 50°55' E 006°59'16 3.1
2014-Jul-23 08:04N 51°09' E 006°48'2 4.1
2014-Jul-23 07:33N 51°11' E 006°47'55 3.2
2014-Jul-22 14:24N 51°52' E 005°49'6 5.9
2014-Jul-22 13:19N 51°54' E 005°39'5 5.7
2014-Jul-22 12:31N 51°53' E 005°31'5 5.2
2014-Jul-22 11:33N 51°51' E 005°25'4 4.2
2014-Jul-22 10:33N 51°49' E 005°18'6 5.7
2014-Jul-22 09:33N 51°49' E 005°09'6 6.1
2014-Jul-22 08:33N 51°49' E 004°59'8 7.0
2014-Jul-22 07:29N 51°48' E 004°47'11 7.8
2014-Jul-22 06:06N 51°42' E 004°33'5 8.1
2014-Jul-22 05:31N 51°42' E 004°25'6 5.7
2014-Jul-22 04:33N 51°39' E 004°17'5 4.2
2014-Jul-22 03:19N 51°40' E 004°09'6 7.7
2014-Jul-22 02:33N 51°36' E 004°01'6 5.6
2014-Jul-22 01:33N 51°31' E 004°01'4 4.1
2014-Jul-22 00:33N 51°27' E 003°59'6 5.6
2014-Jul-21 23:33N 51°22' E 003°53'6 6.6
2014-Jul-21 22:34N 51°25' E 003°43'2 2.1
2014-Jul-21 21:33N 51°27' E 003°43'0 0.3
2014-Jul-21 20:33N 51°27' E 003°43'0 0.0
2014-Jul-21 20:18N 51°27' E 003°43'0 0.0
2014-Jul-21 19:33N 51°27' E 003°43'0 0.0
2014-Jul-21 18:33N 51°27' E 003°43'0 0.0
2014-Jul-21 17:33N 51°27' E 003°43'0 0.0
2014-Jul-21 16:33N 51°27' E 003°43'0 0.0
2014-Jul-21 15:33N 51°27' E 003°43'0 0.0
2014-Jul-21 14:33N 51°27' E 003°43'0 0.0
2014-Jul-21 13:33N 51°27' E 003°43'0 0.0
2014-Jul-21 12:33N 51°27' E 003°43'0 0.0
2014-Jul-21 11:33N 51°27' E 003°43'0 0.0
2014-Jul-21 10:33N 51°27' E 003°43'0 0.0
2014-Jul-21 09:33N 51°27' E 003°43'0 0.0
2014-Jul-21 08:33N 51°27' E 003°43'0 0.0
2014-Jul-21 07:33N 51°27' E 003°43'0 0.0
2014-Jul-21 06:33N 51°27' E 003°43'0 0.0
2014-Jul-21 05:33N 51°27' E 003°43'0 0.0
2014-Jul-21 04:33N 51°27' E 003°43'3 2.6
2014-Jul-21 03:33N 51°24' E 003°45'7 6.8
2014-Jul-21 02:33N 51°25' E 003°55'4 4.0
2014-Jul-21 01:33N 51°28' E 004°01'7 7.0
2014-Jul-21 00:33N 51°34' E 003°58'8 7.9
2014-Jul-20 23:33N 51°40' E 004°07'5 5.1
2014-Jul-20 22:33N 51°39' E 004°15'7 6.2
2014-Jul-20 21:29N 51°41' E 004°25'7 7.9
2014-Jul-20 20:33N 51°43' E 004°37'8 8.4
2014-Jul-20 19:34N 51°51' E 004°40'6 6.4
2014-Jul-20 18:33N 51°55' E 004°47'9 9.0
2014-Jul-20 17:34N 51°58' E 005°01'5 5.2
2014-Jul-20 16:33N 52°02' E 005°07'9 8.5
2014-Jul-20 15:33N 52°10' E 004°60'9 9.0
2014-Jul-20 14:33N 52°18' E 005°01'7 7.1
2014-Jul-20 13:33N 52°24' E 004°53'4 3.9
2014-Jul-20 12:33N 52°25' E 004°47'0 0.0
2014-Jul-20 11:33N 52°25' E 004°47'0 0.0
2014-Jul-20 10:33N 52°25' E 004°47'0 0.0
2014-Jul-20 09:33N 52°25' E 004°47'0 0.0
2014-Jul-20 08:33N 52°25' E 004°47'0 0.0
2014-Jul-20 07:33N 52°25' E 004°47'0 0.0
2014-Jul-20 06:33N 52°25' E 004°47'0 0.0
2014-Jul-20 05:33N 52°25' E 004°47'0 0.0
2014-Jul-20 04:33N 52°25' E 004°47'0 0.2
2014-Jul-20 03:33N 52°25' E 004°48'0 0.0
2014-Jul-20 02:33N 52°25' E 004°48'0 0.0
2014-Jul-20 01:33N 52°25' E 004°48'0 0.0
2014-Jul-20 00:33N 52°25' E 004°48'0 0.0
2014-Jul-19 23:33N 52°25' E 004°48'0 0.0
2014-Jul-19 22:33N 52°25' E 004°48'0 0.0
2014-Jul-19 21:33N 52°25' E 004°48'0 0.0
2014-Jul-19 20:33N 52°25' E 004°48'0 0.0
2014-Jul-19 19:33N 52°25' E 004°48'0 0.0
2014-Jul-19 18:33N 52°25' E 004°48'0 0.0
2014-Jul-19 17:33N 52°25' E 004°48'  
Track history (hours):
 
Tides and Currents Weather Stations Pressure Air Temp Water Temp Dewpoint Dewpoint Depression Visibility Wind Speed Wind Dir Waves Ship Positions

Astra

Last reported at 2014-Jul-29 16:34 UTC. Time now 2014-Jul-29 16:49 UTC.
Position N 52°23' E 004°54'.

Length 110 m.

Type: Tanker. MMSI: 244650752.

Date/timePositionNaut miles runAvg speedWind from/ knotsBaromVisibWave heightAir tempDewpointWater temp
2014-Jul-29 16:34N 52°23' E 004°54'4 4.2
2014-Jul-29 15:33N 52°25' E 004°47'0 0.0
2014-Jul-29 14:33N 52°25' E 004°47'0 0.0
2014-Jul-29 13:33N 52°25' E 004°47'0 0.0
2014-Jul-29 12:33N 52°25' E 004°47'0 0.0
2014-Jul-29 11:33N 52°25' E 004°47'0 0.0
2014-Jul-29 10:33N 52°25' E 004°47'0 0.0
2014-Jul-29 09:33N 52°25' E 004°47'0 0.0
2014-Jul-29 08:33N 52°25' E 004°47'0 0.0
2014-Jul-29 07:33N 52°25' E 004°47'0 0.1
2014-Jul-29 06:33N 52°25' E 004°48'0 0.0
2014-Jul-29 05:33N 52°25' E 004°48'0 0.0
2014-Jul-29 04:33N 52°25' E 004°48'0 0.0
2014-Jul-29 03:33N 52°25' E 004°48'0 0.0
2014-Jul-29 02:33N 52°25' E 004°48'0 0.0
2014-Jul-29 01:33N 52°25' E 004°48'1 1.0
2014-Jul-29 00:33N 52°25' E 004°49'7 6.6
2014-Jul-28 23:33N 52°22' E 004°58'7 7.2
2014-Jul-28 22:33N 52°15' E 005°01'7 7.3
2014-Jul-28 21:33N 52°07' E 005°04'8 7.7
2014-Jul-28 20:33N 52°01' E 005°09'7 6.7
2014-Jul-28 19:33N 51°58' E 005°19'6 6.0
2014-Jul-28 18:33N 51°55' E 005°27'6 5.6
2014-Jul-28 17:33N 51°54' E 005°36'1010.0
2014-Jul-28 16:33N 51°51' E 005°52'48 4.8
2014-Jul-28 06:33N 51°32' E 007°03'0 0.0
2014-Jul-28 05:17N 51°32' E 007°03'0 0.0
2014-Jul-28 04:23N 51°32' E 007°03'0 0.0
2014-Jul-28 03:29N 51°32' E 007°03'0 0.0
2014-Jul-28 02:31N 51°32' E 007°03'0 0.0
2014-Jul-28 01:33N 51°32' E 007°03'0 0.0
2014-Jul-28 00:32N 51°32' E 007°03'0 0.0
2014-Jul-27 23:25N 51°32' E 007°03'0 0.0
2014-Jul-27 22:33N 51°32' E 007°03'0 0.0
2014-Jul-27 21:33N 51°32' E 007°03'0 0.0
2014-Jul-27 20:33N 51°32' E 007°03'0 0.0
2014-Jul-27 18:23N 51°32' E 007°03'21 3.6
2014-Jul-27 12:29N 51°13' E 006°46'130 7.7
2014-Jul-26 19:31N 49°21' E 008°29'8 8.7
2014-Jul-26 18:33N 49°13' E 008°23'1110.7
2014-Jul-26 17:33N 49°03' E 008°19'1110.7
2014-Jul-26 16:33N 48°54' E 008°09'5 4.9
2014-Jul-26 15:32N 48°50' E 008°07'2 2.1
2014-Jul-26 14:33N 48°48' E 008°05'9 9.1
2014-Jul-26 13:32N 48°41' E 007°55'1 0.0
2014-Jul-25 10:28N 48°40' E 007°54'3 3.6
2014-Jul-25 09:33N 48°43' E 007°57'6 4.3
2014-Jul-25 08:15N 48°47' E 008°02'4 3.3
2014-Jul-25 07:04N 48°50' E 008°07'1 2.5
2014-Jul-25 06:33N 48°51' E 008°07'4 3.6
2014-Jul-25 05:32N 48°55' E 008°09'4 3.6
2014-Jul-25 04:30N 48°58' E 008°13'4 4.1
2014-Jul-25 03:33N 49°00' E 008°17'4 4.1
2014-Jul-25 02:33N 49°04' E 008°19'4 4.1
2014-Jul-25 01:33N 49°08' E 008°22'4 4.3
2014-Jul-25 00:33N 49°12' E 008°23'4 4.2
2014-Jul-24 23:33N 49°16' E 008°26'3 3.3
2014-Jul-24 22:33N 49°19' E 008°28'106 3.4
2014-Jul-23 15:32N 50°49' E 007°01'2 2.4
2014-Jul-23 14:32N 50°52' E 007°01'3 2.6
2014-Jul-23 13:12N 50°55' E 006°59'16 3.1
2014-Jul-23 08:04N 51°09' E 006°48'2 4.1
2014-Jul-23 07:33N 51°11' E 006°47'55 3.2
2014-Jul-22 14:24N 51°52' E 005°49'6 5.9
2014-Jul-22 13:19N 51°54' E 005°39'5 5.7
2014-Jul-22 12:31N 51°53' E 005°31'5 5.2
2014-Jul-22 11:33N 51°51' E 005°25'4 4.2
2014-Jul-22 10:33N 51°49' E 005°18'6 5.7
2014-Jul-22 09:33N 51°49' E 005°09'6 6.1
2014-Jul-22 08:33N 51°49' E 004°59'8 7.0
2014-Jul-22 07:29N 51°48' E 004°47'11 7.8
2014-Jul-22 06:06N 51°42' E 004°33'5 8.1
2014-Jul-22 05:31N 51°42' E 004°25'6 5.7
2014-Jul-22 04:33N 51°39' E 004°17'5 4.2
2014-Jul-22 03:19N 51°40' E 004°09'6 7.7
2014-Jul-22 02:33N 51°36' E 004°01'6 5.6
2014-Jul-22 01:33N 51°31' E 004°01'4 4.1
2014-Jul-22 00:33N 51°27' E 003°59'6 5.6
2014-Jul-21 23:33N 51°22' E 003°53'6 6.6
2014-Jul-21 22:34N 51°25' E 003°43'2 2.1
2014-Jul-21 21:33N 51°27' E 003°43'0 0.3
2014-Jul-21 20:33N 51°27' E 003°43'0 0.0
2014-Jul-21 20:18N 51°27' E 003°43'0 0.0
2014-Jul-21 19:33N 51°27' E 003°43'0 0.0
2014-Jul-21 18:33N 51°27' E 003°43'0 0.0
2014-Jul-21 17:33N 51°27' E 003°43'0 0.0
2014-Jul-21 16:33N 51°27' E 003°43'0 0.0
2014-Jul-21 15:33N 51°27' E 003°43'0 0.0
2014-Jul-21 14:33N 51°27' E 003°43'0 0.0
2014-Jul-21 13:33N 51°27' E 003°43'0 0.0
2014-Jul-21 12:33N 51°27' E 003°43'0 0.0
2014-Jul-21 11:33N 51°27' E 003°43'0 0.0
2014-Jul-21 10:33N 51°27' E 003°43'0 0.0
2014-Jul-21 09:33N 51°27' E 003°43'0 0.0
2014-Jul-21 08:33N 51°27' E 003°43'0 0.0
2014-Jul-21 07:33N 51°27' E 003°43'0 0.0
2014-Jul-21 06:33N 51°27' E 003°43'0 0.0
2014-Jul-21 05:33N 51°27' E 003°43'0 0.0
2014-Jul-21 04:33N 51°27' E 003°43'3 2.6
2014-Jul-21 03:33N 51°24' E 003°45'7 6.8
2014-Jul-21 02:33N 51°25' E 003°55'4 4.0
2014-Jul-21 01:33N 51°28' E 004°01'7 7.0
2014-Jul-21 00:33N 51°34' E 003°58'8 7.9
2014-Jul-20 23:33N 51°40' E 004°07'5 5.1
2014-Jul-20 22:33N 51°39' E 004°15'7 6.2
2014-Jul-20 21:29N 51°41' E 004°25'7 7.9
2014-Jul-20 20:33N 51°43' E 004°37'8 8.4
2014-Jul-20 19:34N 51°51' E 004°40'6 6.4
2014-Jul-20 18:33N 51°55' E 004°47'9 9.0
2014-Jul-20 17:34N 51°58' E 005°01'5 5.2
2014-Jul-20 16:33N 52°02' E 005°07'9 8.5
2014-Jul-20 15:33N 52°10' E 004°60'9 9.0
2014-Jul-20 14:33N 52°18' E 005°01'7 7.1
2014-Jul-20 13:33N 52°24' E 004°53'4 3.9
2014-Jul-20 12:33N 52°25' E 004°47'0 0.0
2014-Jul-20 11:33N 52°25' E 004°47'0 0.0
2014-Jul-20 10:33N 52°25' E 004°47'0 0.0
2014-Jul-20 09:33N 52°25' E 004°47'0 0.0
2014-Jul-20 08:33N 52°25' E 004°47'0 0.0
2014-Jul-20 07:33N 52°25' E 004°47'0 0.0
2014-Jul-20 06:33N 52°25' E 004°47'0 0.0
2014-Jul-20 05:33N 52°25' E 004°47'0 0.0
2014-Jul-20 04:33N 52°25' E 004°47'0 0.2
2014-Jul-20 03:33N 52°25' E 004°48'0 0.0
2014-Jul-20 02:33N 52°25' E 004°48'0 0.0
2014-Jul-20 01:33N 52°25' E 004°48'0 0.0
2014-Jul-20 00:33N 52°25' E 004°48'0 0.0
2014-Jul-19 23:33N 52°25' E 004°48'0 0.0
2014-Jul-19 22:33N 52°25' E 004°48'0 0.0
2014-Jul-19 21:33N 52°25' E 004°48'0 0.0
2014-Jul-19 20:33N 52°25' E 004°48'0 0.0
2014-Jul-19 19:33N 52°25' E 004°48'0 0.0
2014-Jul-19 18:33N 52°25' E 004°48'0 0.0
2014-Jul-19 17:33N 52°25' E 004°48'  

Dump ship's entire track history